68NY weather

Merrimac Farms Airport
Mount Morris, New York, United States

Public forecast

Using degrees Fahrenheit for public forecast. Weather courtesy of forecast.io.

METAR (pilot weather report)

Closest report is Dansville Municipal Airport, 11.2 nm (20.8 km) SSE. Retrieved 2019/09/16 02:54 UTC (19 minutes ago):

KDSV 160254Z AUTO 00000KT 10SM OVC050 18/17 A3012 RMK AO2 SLP204 T01780167 52004

TAF (pilot weather forecast)

Forecast is more than 12 hours old.

Closest forecast is Greater Rochester International Airport, 22.7 nm (42.0 km) NNE. Retrieved 2019/09/15 00:42 UTC (1 day ago):

TAF KROC 152339Z 1600/1624 06005KT P6SM -SHRA SCT008 BKN045 OVC070 FM160100 08004KT 6SM BR VCSH OVC040 TEMPO 1603/1607 4SM -SHRA OVC015 FM160900 08004KT 6SM BR VCSH OVC012 FM161400 06008KT P6SM OVC025 FM161600 05010KT P6SM BKN060 FM162000 04010KT P6SM SCT250